sensor_id;sensor_type;location;lat;lon;timestamp;P1;durP1;ratioP1;P2;durP2;ratioP2
57828;SDS011;43657;52.698;6.314;2023-01-13T00:01:26;24.75;;;5.63;;
57828;SDS011;43657;52.698;6.314;2023-01-13T00:03:52;24.60;;;4.95;;
57828;SDS011;43657;52.698;6.314;2023-01-13T00:06:20;28.25;;;6.03;;
57828;SDS011;43657;52.698;6.314;2023-01-13T00:08:50;20.50;;;4.90;;
57828;SDS011;43657;52.698;6.314;2023-01-13T00:11:17;28.35;;;5.90;;
57828;SDS011;43657;52.698;6.314;2023-01-13T00:13:43;27.70;;;6.05;;
57828;SDS011;43657;52.698;6.314;2023-01-13T00:16:13;26.02;;;5.38;;
57828;SDS011;43657;52.698;6.314;2023-01-13T00:18:40;24.15;;;5.38;;
57828;SDS011;43657;52.698;6.314;2023-01-13T00:21:08;25.63;;;5.28;;
57828;SDS011;43657;52.698;6.314;2023-01-13T00:23:36;23.45;;;5.32;;
57828;SDS011;43657;52.698;6.314;2023-01-13T00:26:08;24.58;;;5.40;;
57828;SDS011;43657;52.698;6.314;2023-01-13T00:28:36;20.15;;;4.45;;
57828;SDS011;43657;52.698;6.314;2023-01-13T00:31:09;20.40;;;4.40;;
57828;SDS011;43657;52.698;6.314;2023-01-13T00:33:37;24.80;;;4.32;;
57828;SDS011;43657;52.698;6.314;2023-01-13T00:36:04;18.83;;;4.43;;
57828;SDS011;43657;52.698;6.314;2023-01-13T00:38:31;20.23;;;4.47;;
57828;SDS011;43657;52.698;6.314;2023-01-13T00:40:58;22.38;;;4.72;;
57828;SDS011;43657;52.698;6.314;2023-01-13T00:43:25;16.77;;;4.35;;
57828;SDS011;43657;52.698;6.314;2023-01-13T00:45:51;19.98;;;4.68;;
57828;SDS011;43657;52.698;6.314;2023-01-13T00:48:18;16.77;;;3.65;;
57828;SDS011;43657;52.698;6.314;2023-01-13T00:50:44;20.00;;;4.30;;
57828;SDS011;43657;52.698;6.314;2023-01-13T00:53:10;18.35;;;4.65;;
57828;SDS011;43657;52.698;6.314;2023-01-13T00:55:38;17.27;;;4.07;;
57828;SDS011;43657;52.698;6.314;2023-01-13T00:58:03;23.20;;;4.32;;
57828;SDS011;43657;52.698;6.314;2023-01-13T01:00:29;18.63;;;4.55;;
57828;SDS011;43657;52.698;6.314;2023-01-13T01:02:56;21.00;;;5.22;;
57828;SDS011;43657;52.698;6.314;2023-01-13T01:05:22;20.13;;;4.50;;
57828;SDS011;43657;52.698;6.314;2023-01-13T01:07:47;24.40;;;4.38;;
57828;SDS011;43657;52.698;6.314;2023-01-13T01:10:13;25.58;;;5.53;;
57828;SDS011;43657;52.698;6.314;2023-01-13T01:12:39;19.30;;;4.78;;
57828;SDS011;43657;52.698;6.314;2023-01-13T01:15:06;28.55;;;4.88;;
57828;SDS011;43657;52.698;6.314;2023-01-13T01:17:34;23.58;;;4.85;;
57828;SDS011;43657;52.698;6.314;2023-01-13T01:20:03;24.63;;;5.13;;
57828;SDS011;43657;52.698;6.314;2023-01-13T01:22:29;26.92;;;4.90;;
57828;SDS011;43657;52.698;6.314;2023-01-13T01:24:55;22.08;;;4.90;;
57828;SDS011;43657;52.698;6.314;2023-01-13T01:27:20;21.35;;;4.95;;
57828;SDS011;43657;52.698;6.314;2023-01-13T01:29:46;20.25;;;4.35;;
57828;SDS011;43657;52.698;6.314;2023-01-13T01:32:11;22.38;;;4.68;;
57828;SDS011;43657;52.698;6.314;2023-01-13T01:34:37;25.98;;;5.28;;
57828;SDS011;43657;52.698;6.314;2023-01-13T01:37:05;27.05;;;5.68;;
57828;SDS011;43657;52.698;6.314;2023-01-13T01:39:31;24.00;;;5.35;;
57828;SDS011;43657;52.698;6.314;2023-01-13T01:41:56;26.55;;;4.65;;
57828;SDS011;43657;52.698;6.314;2023-01-13T01:47:07;28.00;;;6.25;;
57828;SDS011;43657;52.698;6.314;2023-01-13T01:49:35;22.15;;;5.15;;
57828;SDS011;43657;52.698;6.314;2023-01-13T01:54:30;27.50;;;5.63;;
57828;SDS011;43657;52.698;6.314;2023-01-13T01:57:01;23.85;;;5.55;;
57828;SDS011;43657;52.698;6.314;2023-01-13T01:59:27;29.15;;;5.60;;
57828;SDS011;43657;52.698;6.314;2023-01-13T02:01:56;21.70;;;5.25;;
57828;SDS011;43657;52.698;6.314;2023-01-13T02:04:23;22.77;;;5.35;;
57828;SDS011;43657;52.698;6.314;2023-01-13T02:06:53;25.38;;;5.15;;
57828;SDS011;43657;52.698;6.314;2023-01-13T02:09:21;24.10;;;5.05;;
57828;SDS011;43657;52.698;6.314;2023-01-13T02:11:48;24.63;;;4.82;;
57828;SDS011;43657;52.698;6.314;2023-01-13T02:14:32;25.20;;;5.72;;
57828;SDS011;43657;52.698;6.314;2023-01-13T02:22:35;26.58;;;5.88;;
57828;SDS011;43657;52.698;6.314;2023-01-13T02:26:46;28.77;;;6.13;;
57828;SDS011;43657;52.698;6.314;2023-01-13T02:32:18;25.67;;;5.55;;
57828;SDS011;43657;52.698;6.314;2023-01-13T02:34:54;27.05;;;5.97;;
57828;SDS011;43657;52.698;6.314;2023-01-13T02:37:32;29.85;;;5.80;;
57828;SDS011;43657;52.698;6.314;2023-01-13T02:40:02;22.77;;;5.68;;
57828;SDS011;43657;52.698;6.314;2023-01-13T02:42:48;25.13;;;5.55;;
57828;SDS011;43657;52.698;6.314;2023-01-13T02:45:49;24.48;;;5.45;;
57828;SDS011;43657;52.698;6.314;2023-01-13T02:48:25;27.10;;;5.15;;
57828;SDS011;43657;52.698;6.314;2023-01-13T02:51:13;29.55;;;5.38;;
57828;SDS011;43657;52.698;6.314;2023-01-13T02:56:13;30.55;;;6.47;;
57828;SDS011;43657;52.698;6.314;2023-01-13T02:58:40;21.30;;;5.03;;
57828;SDS011;43657;52.698;6.314;2023-01-13T03:01:07;28.45;;;5.80;;
57828;SDS011;43657;52.698;6.314;2023-01-13T03:03:33;25.48;;;6.07;;
57828;SDS011;43657;52.698;6.314;2023-01-13T03:06:26;22.58;;;5.50;;
57828;SDS011;43657;52.698;6.314;2023-01-13T03:09:10;26.70;;;6.43;;
57828;SDS011;43657;52.698;6.314;2023-01-13T03:14:51;29.55;;;6.05;;
57828;SDS011;43657;52.698;6.314;2023-01-13T03:20:17;26.70;;;5.85;;
57828;SDS011;43657;52.698;6.314;2023-01-13T03:23:07;28.65;;;5.50;;
57828;SDS011;43657;52.698;6.314;2023-01-13T03:26:01;27.27;;;5.78;;
57828;SDS011;43657;52.698;6.314;2023-01-13T03:29:00;24.73;;;5.05;;
57828;SDS011;43657;52.698;6.314;2023-01-13T03:31:31;33.42;;;6.10;;
57828;SDS011;43657;52.698;6.314;2023-01-13T03:34:02;29.77;;;5.60;;
57828;SDS011;43657;52.698;6.314;2023-01-13T03:36:35;29.00;;;5.55;;
57828;SDS011;43657;52.698;6.314;2023-01-13T03:39:06;25.65;;;5.53;;
57828;SDS011;43657;52.698;6.314;2023-01-13T03:41:37;27.98;;;5.68;;
57828;SDS011;43657;52.698;6.314;2023-01-13T03:44:21;26.92;;;5.72;;
57828;SDS011;43657;52.698;6.314;2023-01-13T03:47:11;30.92;;;6.72;;
57828;SDS011;43657;52.698;6.314;2023-01-13T03:52:33;22.02;;;5.32;;
57828;SDS011;43657;52.698;6.314;2023-01-13T03:55:08;26.90;;;5.22;;
57828;SDS011;43657;52.698;6.314;2023-01-13T04:00:32;25.48;;;5.82;;
57828;SDS011;43657;52.698;6.314;2023-01-13T04:03:04;29.48;;;6.60;;
57828;SDS011;43657;52.698;6.314;2023-01-13T04:05:34;32.85;;;6.28;;
57828;SDS011;43657;52.698;6.314;2023-01-13T04:08:19;28.60;;;5.32;;
57828;SDS011;43657;52.698;6.314;2023-01-13T04:10:56;25.03;;;5.27;;
57828;SDS011;43657;52.698;6.314;2023-01-13T04:13:27;30.60;;;5.93;;
57828;SDS011;43657;52.698;6.314;2023-01-13T04:15:56;25.15;;;6.00;;
57828;SDS011;43657;52.698;6.314;2023-01-13T04:18:25;25.40;;;6.05;;
57828;SDS011;43657;52.698;6.314;2023-01-13T04:20:52;30.00;;;6.88;;
57828;SDS011;43657;52.698;6.314;2023-01-13T04:23:20;28.13;;;5.97;;
57828;SDS011;43657;52.698;6.314;2023-01-13T04:25:46;28.73;;;6.53;;
57828;SDS011;43657;52.698;6.314;2023-01-13T04:28:13;28.48;;;5.68;;
57828;SDS011;43657;52.698;6.314;2023-01-13T04:30:39;28.23;;;6.50;;
57828;SDS011;43657;52.698;6.314;2023-01-13T04:33:06;27.75;;;5.80;;
57828;SDS011;43657;52.698;6.314;2023-01-13T04:35:32;23.92;;;6.00;;
57828;SDS011;43657;52.698;6.314;2023-01-13T04:37:59;26.20;;;5.93;;
57828;SDS011;43657;52.698;6.314;2023-01-13T04:40:25;29.58;;;5.55;;
57828;SDS011;43657;52.698;6.314;2023-01-13T04:42:51;25.23;;;5.20;;
57828;SDS011;43657;52.698;6.314;2023-01-13T04:45:17;25.33;;;5.85;;
57828;SDS011;43657;52.698;6.314;2023-01-13T04:47:42;30.05;;;6.07;;
57828;SDS011;43657;52.698;6.314;2023-01-13T04:50:08;25.73;;;6.25;;
57828;SDS011;43657;52.698;6.314;2023-01-13T04:52:35;24.13;;;5.72;;
57828;SDS011;43657;52.698;6.314;2023-01-13T04:55:00;27.15;;;6.00;;
57828;SDS011;43657;52.698;6.314;2023-01-13T04:57:26;23.17;;;4.30;;
57828;SDS011;43657;52.698;6.314;2023-01-13T04:59:52;20.23;;;4.65;;
57828;SDS011;43657;52.698;6.314;2023-01-13T05:02:18;25.13;;;4.60;;
57828;SDS011;43657;52.698;6.314;2023-01-13T05:04:47;27.42;;;5.85;;
57828;SDS011;43657;52.698;6.314;2023-01-13T05:07:14;18.60;;;4.82;;
57828;SDS011;43657;52.698;6.314;2023-01-13T05:09:40;25.95;;;5.60;;
57828;SDS011;43657;52.698;6.314;2023-01-13T05:12:07;23.52;;;5.25;;
57828;SDS011;43657;52.698;6.314;2023-01-13T05:14:52;18.52;;;4.07;;
57828;SDS011;43657;52.698;6.314;2023-01-13T05:17:36;23.42;;;4.35;;
57828;SDS011;43657;52.698;6.314;2023-01-13T05:20:03;15.70;;;4.40;;
57828;SDS011;43657;52.698;6.314;2023-01-13T05:22:29;21.40;;;5.43;;
57828;SDS011;43657;52.698;6.314;2023-01-13T05:25:13;18.00;;;4.07;;
57828;SDS011;43657;52.698;6.314;2023-01-13T05:27:53;20.77;;;4.65;;
57828;SDS011;43657;52.698;6.314;2023-01-13T05:30:20;16.77;;;4.80;;
57828;SDS011;43657;52.698;6.314;2023-01-13T05:32:47;22.92;;;4.82;;
57828;SDS011;43657;52.698;6.314;2023-01-13T05:35:13;16.50;;;3.75;;
57828;SDS011;43657;52.698;6.314;2023-01-13T05:37:40;17.77;;;4.10;;
57828;SDS011;43657;52.698;6.314;2023-01-13T05:40:07;17.55;;;4.22;;
57828;SDS011;43657;52.698;6.314;2023-01-13T05:48:31;18.30;;;4.25;;
57828;SDS011;43657;52.698;6.314;2023-01-13T05:50:58;23.58;;;5.00;;
57828;SDS011;43657;52.698;6.314;2023-01-13T05:53:25;20.52;;;5.07;;
57828;SDS011;43657;52.698;6.314;2023-01-13T05:55:51;20.58;;;5.20;;
57828;SDS011;43657;52.698;6.314;2023-01-13T05:58:17;24.17;;;7.07;;
57828;SDS011;43657;52.698;6.314;2023-01-13T06:00:44;22.63;;;6.57;;
57828;SDS011;43657;52.698;6.314;2023-01-13T06:03:10;21.35;;;6.63;;
57828;SDS011;43657;52.698;6.314;2023-01-13T06:05:36;20.77;;;6.53;;
57828;SDS011;43657;52.698;6.314;2023-01-13T06:08:03;17.50;;;6.80;;
57828;SDS011;43657;52.698;6.314;2023-01-13T06:10:33;23.30;;;6.72;;
57828;SDS011;43657;52.698;6.314;2023-01-13T06:13:00;15.52;;;5.40;;
57828;SDS011;43657;52.698;6.314;2023-01-13T06:15:26;15.15;;;5.45;;
57828;SDS011;43657;52.698;6.314;2023-01-13T06:17:52;16.05;;;5.05;;
57828;SDS011;43657;52.698;6.314;2023-01-13T06:20:17;16.35;;;4.55;;
57828;SDS011;43657;52.698;6.314;2023-01-13T06:22:48;14.68;;;4.35;;
57828;SDS011;43657;52.698;6.314;2023-01-13T06:25:20;13.10;;;3.95;;
57828;SDS011;43657;52.698;6.314;2023-01-13T06:27:57;14.07;;;3.75;;
57828;SDS011;43657;52.698;6.314;2023-01-13T06:30:25;13.25;;;3.55;;
57828;SDS011;43657;52.698;6.314;2023-01-13T06:32:54;16.92;;;4.03;;
57828;SDS011;43657;52.698;6.314;2023-01-13T06:35:23;15.23;;;3.65;;
57828;SDS011;43657;52.698;6.314;2023-01-13T06:37:52;12.02;;;3.33;;
57828;SDS011;43657;52.698;6.314;2023-01-13T06:40:20;12.63;;;3.00;;
57828;SDS011;43657;52.698;6.314;2023-01-13T06:42:47;12.40;;;3.00;;
57828;SDS011;43657;52.698;6.314;2023-01-13T06:45:32;12.55;;;3.00;;
57828;SDS011;43657;52.698;6.314;2023-01-13T06:47:59;14.75;;;3.28;;
57828;SDS011;43657;52.698;6.314;2023-01-13T06:50:25;13.55;;;3.08;;
57828;SDS011;43657;52.698;6.314;2023-01-13T06:52:52;9.60;;;3.05;;
57828;SDS011;43657;52.698;6.314;2023-01-13T06:55:17;16.15;;;3.35;;
57828;SDS011;43657;52.698;6.314;2023-01-13T06:57:50;15.02;;;3.75;;
57828;SDS011;43657;52.698;6.314;2023-01-13T07:00:17;12.00;;;3.00;;
57828;SDS011;43657;52.698;6.314;2023-01-13T07:02:43;18.65;;;4.05;;
57828;SDS011;43657;52.698;6.314;2023-01-13T07:05:09;13.38;;;3.40;;
57828;SDS011;43657;52.698;6.314;2023-01-13T07:07:35;22.67;;;3.72;;
57828;SDS011;43657;52.698;6.314;2023-01-13T07:10:00;13.32;;;3.17;;
57828;SDS011;43657;52.698;6.314;2023-01-13T07:12:26;15.10;;;3.28;;
57828;SDS011;43657;52.698;6.314;2023-01-13T07:14:52;13.00;;;3.03;;
57828;SDS011;43657;52.698;6.314;2023-01-13T07:17:36;18.50;;;3.78;;
57828;SDS011;43657;52.698;6.314;2023-01-13T07:20:01;12.50;;;3.78;;
57828;SDS011;43657;52.698;6.314;2023-01-13T07:22:27;14.82;;;2.97;;
57828;SDS011;43657;52.698;6.314;2023-01-13T07:24:53;16.40;;;3.67;;
57828;SDS011;43657;52.698;6.314;2023-01-13T07:27:18;19.17;;;3.38;;
57828;SDS011;43657;52.698;6.314;2023-01-13T07:29:44;16.15;;;3.25;;
57828;SDS011;43657;52.698;6.314;2023-01-13T07:32:09;14.98;;;3.67;;
57828;SDS011;43657;52.698;6.314;2023-01-13T07:34:35;15.52;;;3.30;;
57828;SDS011;43657;52.698;6.314;2023-01-13T07:37:01;16.38;;;3.25;;
57828;SDS011;43657;52.698;6.314;2023-01-13T07:39:26;19.60;;;3.38;;
57828;SDS011;43657;52.698;6.314;2023-01-13T07:41:52;19.42;;;3.75;;
57828;SDS011;43657;52.698;6.314;2023-01-13T07:44:36;18.10;;;2.97;;
57828;SDS011;43657;52.698;6.314;2023-01-13T07:47:02;18.77;;;3.45;;
57828;SDS011;43657;52.698;6.314;2023-01-13T07:49:29;17.20;;;3.28;;
57828;SDS011;43657;52.698;6.314;2023-01-13T07:51:55;14.80;;;3.08;;
57828;SDS011;43657;52.698;6.314;2023-01-13T07:54:21;25.30;;;3.47;;
57828;SDS011;43657;52.698;6.314;2023-01-13T07:56:46;16.83;;;3.65;;
57828;SDS011;43657;52.698;6.314;2023-01-13T07:59:12;19.80;;;3.63;;
57828;SDS011;43657;52.698;6.314;2023-01-13T08:01:37;17.33;;;3.42;;
57828;SDS011;43657;52.698;6.314;2023-01-13T08:04:03;18.52;;;3.65;;
57828;SDS011;43657;52.698;6.314;2023-01-13T08:06:29;17.33;;;2.92;;
57828;SDS011;43657;52.698;6.314;2023-01-13T08:08:54;19.52;;;3.50;;
57828;SDS011;43657;52.698;6.314;2023-01-13T08:11:20;19.90;;;3.63;;
57828;SDS011;43657;52.698;6.314;2023-01-13T08:13:45;20.77;;;4.38;;
57828;SDS011;43657;52.698;6.314;2023-01-13T08:16:12;18.75;;;3.65;;
57828;SDS011;43657;52.698;6.314;2023-01-13T08:18:39;16.90;;;4.18;;
57828;SDS011;43657;52.698;6.314;2023-01-13T08:21:06;18.58;;;3.63;;
57828;SDS011;43657;52.698;6.314;2023-01-13T08:23:34;20.85;;;3.83;;
57828;SDS011;43657;52.698;6.314;2023-01-13T08:26:00;15.88;;;3.70;;
57828;SDS011;43657;52.698;6.314;2023-01-13T08:28:31;16.33;;;4.32;;
57828;SDS011;43657;52.698;6.314;2023-01-13T08:30:58;17.95;;;3.30;;
57828;SDS011;43657;52.698;6.314;2023-01-13T08:33:24;21.35;;;3.70;;
57828;SDS011;43657;52.698;6.314;2023-01-13T08:35:50;19.98;;;3.70;;
57828;SDS011;43657;52.698;6.314;2023-01-13T08:38:17;22.02;;;3.60;;
57828;SDS011;43657;52.698;6.314;2023-01-13T08:40:43;21.13;;;4.18;;
57828;SDS011;43657;52.698;6.314;2023-01-13T08:43:08;18.48;;;3.85;;
57828;SDS011;43657;52.698;6.314;2023-01-13T08:45:34;22.42;;;3.88;;
57828;SDS011;43657;52.698;6.314;2023-01-13T08:48:00;18.25;;;3.85;;
57828;SDS011;43657;52.698;6.314;2023-01-13T08:50:26;26.85;;;4.68;;
57828;SDS011;43657;52.698;6.314;2023-01-13T08:52:52;18.42;;;4.72;;
57828;SDS011;43657;52.698;6.314;2023-01-13T08:55:18;16.23;;;3.35;;
57828;SDS011;43657;52.698;6.314;2023-01-13T08:57:44;16.75;;;3.42;;
57828;SDS011;43657;52.698;6.314;2023-01-13T09:00:10;18.63;;;3.45;;
57828;SDS011;43657;52.698;6.314;2023-01-13T09:02:36;18.13;;;4.00;;
57828;SDS011;43657;52.698;6.314;2023-01-13T09:05:05;17.17;;;3.90;;
57828;SDS011;43657;52.698;6.314;2023-01-13T09:07:32;19.83;;;4.38;;
57828;SDS011;43657;52.698;6.314;2023-01-13T09:09:59;19.95;;;3.60;;
57828;SDS011;43657;52.698;6.314;2023-01-13T09:12:25;19.27;;;4.03;;
57828;SDS011;43657;52.698;6.314;2023-01-13T09:15:10;19.15;;;4.35;;
57828;SDS011;43657;52.698;6.314;2023-01-13T09:17:36;23.35;;;4.03;;
57828;SDS011;43657;52.698;6.314;2023-01-13T09:20:02;15.65;;;3.40;;
57828;SDS011;43657;52.698;6.314;2023-01-13T09:22:28;21.40;;;4.07;;
57828;SDS011;43657;52.698;6.314;2023-01-13T09:24:54;19.27;;;3.88;;
57828;SDS011;43657;52.698;6.314;2023-01-13T09:27:20;15.68;;;3.42;;
57828;SDS011;43657;52.698;6.314;2023-01-13T09:29:46;16.85;;;3.50;;
57828;SDS011;43657;52.698;6.314;2023-01-13T09:32:12;18.50;;;4.10;;
57828;SDS011;43657;52.698;6.314;2023-01-13T09:34:39;17.20;;;3.22;;
57828;SDS011;43657;52.698;6.314;2023-01-13T09:37:23;22.27;;;4.43;;
57828;SDS011;43657;52.698;6.314;2023-01-13T09:40:16;15.77;;;4.15;;
57828;SDS011;43657;52.698;6.314;2023-01-13T09:45:52;19.40;;;3.60;;
57828;SDS011;43657;52.698;6.314;2023-01-13T09:48:27;19.92;;;3.90;;
57828;SDS011;43657;52.698;6.314;2023-01-13T09:51:02;19.77;;;4.13;;
57828;SDS011;43657;52.698;6.314;2023-01-13T09:53:52;22.55;;;4.15;;
57828;SDS011;43657;52.698;6.314;2023-01-13T09:56:25;19.08;;;3.80;;
57828;SDS011;43657;52.698;6.314;2023-01-13T09:58:51;22.30;;;3.75;;
57828;SDS011;43657;52.698;6.314;2023-01-13T10:01:27;23.63;;;4.20;;
57828;SDS011;43657;52.698;6.314;2023-01-13T10:04:09;21.27;;;4.25;;
57828;SDS011;43657;52.698;6.314;2023-01-13T10:06:36;22.63;;;4.22;;
57828;SDS011;43657;52.698;6.314;2023-01-13T10:09:08;24.67;;;4.82;;
57828;SDS011;43657;52.698;6.314;2023-01-13T10:11:42;27.08;;;4.43;;
57828;SDS011;43657;52.698;6.314;2023-01-13T10:14:33;25.77;;;4.53;;
57828;SDS011;43657;52.698;6.314;2023-01-13T10:28:25;23.40;;;4.63;;
57828;SDS011;43657;52.698;6.314;2023-01-13T10:30:51;26.67;;;4.68;;
57828;SDS011;43657;52.698;6.314;2023-01-13T10:33:18;21.35;;;4.55;;
57828;SDS011;43657;52.698;6.314;2023-01-13T10:38:22;24.17;;;3.92;;
57828;SDS011;43657;52.698;6.314;2023-01-13T10:43:20;23.45;;;4.18;;
57828;SDS011;43657;52.698;6.314;2023-01-13T10:48:34;26.55;;;4.90;;
57828;SDS011;43657;52.698;6.314;2023-01-13T10:51:50;17.88;;;3.85;;
57828;SDS011;43657;52.698;6.314;2023-01-13T10:56:38;20.17;;;4.25;;
57828;SDS011;43657;52.698;6.314;2023-01-13T10:59:08;26.05;;;4.55;;
57828;SDS011;43657;52.698;6.314;2023-01-13T11:01:42;26.45;;;5.18;;
57828;SDS011;43657;52.698;6.314;2023-01-13T11:04:35;26.25;;;4.20;;
57828;SDS011;43657;52.698;6.314;2023-01-13T11:07:03;20.08;;;4.13;;
57828;SDS011;43657;52.698;6.314;2023-01-13T11:09:30;24.83;;;4.60;;
57828;SDS011;43657;52.698;6.314;2023-01-13T11:11:57;18.77;;;4.53;;
57828;SDS011;43657;52.698;6.314;2023-01-13T11:14:39;21.63;;;3.83;;
57828;SDS011;43657;52.698;6.314;2023-01-13T11:17:09;22.48;;;4.32;;
57828;SDS011;43657;52.698;6.314;2023-01-13T11:20:06;20.80;;;4.45;;
57828;SDS011;43657;52.698;6.314;2023-01-13T11:25:28;21.45;;;5.00;;
57828;SDS011;43657;52.698;6.314;2023-01-13T11:28:14;17.00;;;4.00;;
57828;SDS011;43657;52.698;6.314;2023-01-13T11:33:37;18.27;;;3.92;;
57828;SDS011;43657;52.698;6.314;2023-01-13T11:36:11;21.63;;;4.90;;
57828;SDS011;43657;52.698;6.314;2023-01-13T11:38:51;20.98;;;4.00;;
57828;SDS011;43657;52.698;6.314;2023-01-13T11:41:30;22.03;;;4.77;;
57828;SDS011;43657;52.698;6.314;2023-01-13T11:44:20;20.92;;;4.88;;
57828;SDS011;43657;52.698;6.314;2023-01-13T11:46:52;18.38;;;3.80;;
57828;SDS011;43657;52.698;6.314;2023-01-13T11:49:23;20.52;;;3.65;;
57828;SDS011;43657;52.698;6.314;2023-01-13T11:51:59;21.98;;;4.15;;
57828;SDS011;43657;52.698;6.314;2023-01-13T11:54:39;18.10;;;4.10;;
57828;SDS011;43657;52.698;6.314;2023-01-13T12:02:57;18.25;;;3.28;;
57828;SDS011;43657;52.698;6.314;2023-01-13T12:11:54;16.73;;;3.28;;
57828;SDS011;43657;52.698;6.314;2023-01-13T12:14:54;15.60;;;3.53;;
57828;SDS011;43657;52.698;6.314;2023-01-13T12:23:36;13.13;;;2.83;;
57828;SDS011;43657;52.698;6.314;2023-01-13T12:26:07;14.73;;;2.92;;
57828;SDS011;43657;52.698;6.314;2023-01-13T12:28:41;13.18;;;3.25;;
57828;SDS011;43657;52.698;6.314;2023-01-13T12:31:24;12.43;;;2.95;;
57828;SDS011;43657;52.698;6.314;2023-01-13T12:39:40;13.57;;;2.97;;
57828;SDS011;43657;52.698;6.314;2023-01-13T12:42:27;13.88;;;2.83;;
57828;SDS011;43657;52.698;6.314;2023-01-13T12:45:30;9.95;;;2.38;;
57828;SDS011;43657;52.698;6.314;2023-01-13T12:47:57;12.20;;;2.63;;
57828;SDS011;43657;52.698;6.314;2023-01-13T12:52:50;16.20;;;3.13;;
57828;SDS011;43657;52.698;6.314;2023-01-13T13:13:59;11.07;;;2.88;;
57828;SDS011;43657;52.698;6.314;2023-01-13T13:24:42;11.90;;;2.50;;
57828;SDS011;43657;52.698;6.314;2023-01-13T13:27:18;13.75;;;2.65;;
57828;SDS011;43657;52.698;6.314;2023-01-13T13:30:00;10.35;;;2.30;;
57828;SDS011;43657;52.698;6.314;2023-01-13T13:41:17;10.57;;;2.15;;
57828;SDS011;43657;52.698;6.314;2023-01-13T13:44:14;8.43;;;2.10;;
57828;SDS011;43657;52.698;6.314;2023-01-13T13:47:04;11.32;;;2.53;;
57828;SDS011;43657;52.698;6.314;2023-01-13T13:49:41;11.27;;;3.03;;
57828;SDS011;43657;52.698;6.314;2023-01-13T13:54:36;9.27;;;2.67;;
57828;SDS011;43657;52.698;6.314;2023-01-13T13:57:11;10.10;;;2.42;;
57828;SDS011;43657;52.698;6.314;2023-01-13T13:59:54;16.50;;;3.13;;
57828;SDS011;43657;52.698;6.314;2023-01-13T14:02:27;11.77;;;3.55;;
57828;SDS011;43657;52.698;6.314;2023-01-13T14:07:45;11.57;;;2.30;;
57828;SDS011;43657;52.698;6.314;2023-01-13T14:10:22;8.50;;;2.22;;
57828;SDS011;43657;52.698;6.314;2023-01-13T14:12:53;9.10;;;2.05;;
57828;SDS011;43657;52.698;6.314;2023-01-13T14:15:26;10.23;;;2.03;;
57828;SDS011;43657;52.698;6.314;2023-01-13T14:17:52;8.73;;;2.05;;
57828;SDS011;43657;52.698;6.314;2023-01-13T14:20:17;12.65;;;2.50;;
57828;SDS011;43657;52.698;6.314;2023-01-13T14:22:47;11.07;;;2.17;;
57828;SDS011;43657;52.698;6.314;2023-01-13T14:27:54;7.75;;;2.17;;
57828;SDS011;43657;52.698;6.314;2023-01-13T14:30:22;8.07;;;2.15;;
57828;SDS011;43657;52.698;6.314;2023-01-13T14:32:50;9.55;;;2.17;;
57828;SDS011;43657;52.698;6.314;2023-01-13T14:35:16;11.15;;;2.30;;
57828;SDS011;43657;52.698;6.314;2023-01-13T14:37:43;8.88;;;2.13;;
57828;SDS011;43657;52.698;6.314;2023-01-13T14:43:00;8.60;;;2.42;;
57828;SDS011;43657;52.698;6.314;2023-01-13T14:45:27;7.85;;;1.90;;
57828;SDS011;43657;52.698;6.314;2023-01-13T14:47:57;7.78;;;1.92;;
57828;SDS011;43657;52.698;6.314;2023-01-13T14:50:25;12.00;;;2.60;;
57828;SDS011;43657;52.698;6.314;2023-01-13T14:52:55;9.77;;;2.50;;
57828;SDS011;43657;52.698;6.314;2023-01-13T14:58:15;9.60;;;2.30;;
57828;SDS011;43657;52.698;6.314;2023-01-13T15:00:48;8.00;;;2.28;;
57828;SDS011;43657;52.698;6.314;2023-01-13T15:03:16;10.70;;;2.60;;
57828;SDS011;43657;52.698;6.314;2023-01-13T15:05:46;9.40;;;1.95;;
57828;SDS011;43657;52.698;6.314;2023-01-13T15:16:00;7.05;;;1.90;;
57828;SDS011;43657;52.698;6.314;2023-01-13T15:18:28;10.10;;;2.42;;
57828;SDS011;43657;52.698;6.314;2023-01-13T15:20:54;7.88;;;1.80;;
57828;SDS011;43657;52.698;6.314;2023-01-13T15:23:19;8.38;;;2.00;;
57828;SDS011;43657;52.698;6.314;2023-01-13T15:25:45;12.55;;;2.28;;
57828;SDS011;43657;52.698;6.314;2023-01-13T15:28:19;10.63;;;2.67;;
57828;SDS011;43657;52.698;6.314;2023-01-13T15:30:50;8.45;;;1.63;;
57828;SDS011;43657;52.698;6.314;2023-01-13T15:33:17;13.43;;;2.65;;
57828;SDS011;43657;52.698;6.314;2023-01-13T15:35:45;10.73;;;2.40;;
57828;SDS011;43657;52.698;6.314;2023-01-13T15:38:14;10.10;;;2.10;;
57828;SDS011;43657;52.698;6.314;2023-01-13T15:40:41;12.98;;;2.28;;
57828;SDS011;43657;52.698;6.314;2023-01-13T15:43:18;12.02;;;2.15;;
57828;SDS011;43657;52.698;6.314;2023-01-13T15:46:08;9.68;;;1.98;;
57828;SDS011;43657;52.698;6.314;2023-01-13T15:48:43;12.32;;;2.38;;
57828;SDS011;43657;52.698;6.314;2023-01-13T15:51:09;8.63;;;2.22;;
57828;SDS011;43657;52.698;6.314;2023-01-13T15:53:36;10.32;;;2.60;;
57828;SDS011;43657;52.698;6.314;2023-01-13T15:56:02;10.23;;;2.38;;
57828;SDS011;43657;52.698;6.314;2023-01-13T15:58:31;11.75;;;2.63;;
57828;SDS011;43657;52.698;6.314;2023-01-13T16:00:57;11.00;;;2.75;;
57828;SDS011;43657;52.698;6.314;2023-01-13T16:03:22;10.85;;;2.53;;
57828;SDS011;43657;52.698;6.314;2023-01-13T16:05:48;9.02;;;2.80;;
57828;SDS011;43657;52.698;6.314;2023-01-13T16:08:14;11.95;;;2.97;;
57828;SDS011;43657;52.698;6.314;2023-01-13T16:10:44;12.25;;;2.85;;
57828;SDS011;43657;52.698;6.314;2023-01-13T16:13:10;10.88;;;2.67;;
57828;SDS011;43657;52.698;6.314;2023-01-13T16:15:43;15.10;;;3.38;;
57828;SDS011;43657;52.698;6.314;2023-01-13T16:18:18;10.77;;;2.28;;
57828;SDS011;43657;52.698;6.314;2023-01-13T16:20:48;12.63;;;2.70;;
57828;SDS011;43657;52.698;6.314;2023-01-13T16:23:19;11.75;;;2.60;;
57828;SDS011;43657;52.698;6.314;2023-01-13T16:25:46;13.25;;;3.13;;
57828;SDS011;43657;52.698;6.314;2023-01-13T16:28:17;8.82;;;2.50;;
57828;SDS011;43657;52.698;6.314;2023-01-13T16:30:44;12.60;;;2.97;;
57828;SDS011;43657;52.698;6.314;2023-01-13T16:33:20;8.23;;;2.40;;
57828;SDS011;43657;52.698;6.314;2023-01-13T16:36:07;12.27;;;2.72;;
57828;SDS011;43657;52.698;6.314;2023-01-13T16:38:41;13.48;;;2.60;;
57828;SDS011;43657;52.698;6.314;2023-01-13T16:41:10;10.93;;;2.22;;
57828;SDS011;43657;52.698;6.314;2023-01-13T16:43:35;11.63;;;2.90;;
57828;SDS011;43657;52.698;6.314;2023-01-13T16:46:04;7.00;;;2.17;;
57828;SDS011;43657;52.698;6.314;2023-01-13T16:48:41;11.25;;;2.50;;
57828;SDS011;43657;52.698;6.314;2023-01-13T16:51:07;8.10;;;2.03;;
57828;SDS011;43657;52.698;6.314;2023-01-13T16:53:32;11.40;;;1.98;;
57828;SDS011;43657;52.698;6.314;2023-01-13T16:55:58;14.27;;;2.75;;
57828;SDS011;43657;52.698;6.314;2023-01-13T16:58:23;8.88;;;1.92;;
57828;SDS011;43657;52.698;6.314;2023-01-13T17:00:49;13.30;;;2.40;;
57828;SDS011;43657;52.698;6.314;2023-01-13T17:03:16;10.88;;;2.20;;
57828;SDS011;43657;52.698;6.314;2023-01-13T17:05:43;11.40;;;2.42;;
57828;SDS011;43657;52.698;6.314;2023-01-13T17:08:14;9.75;;;2.33;;
57828;SDS011;43657;52.698;6.314;2023-01-13T17:10:42;9.15;;;1.98;;
57828;SDS011;43657;52.698;6.314;2023-01-13T17:13:08;8.73;;;2.50;;
57828;SDS011;43657;52.698;6.314;2023-01-13T17:15:34;10.18;;;2.22;;
57828;SDS011;43657;52.698;6.314;2023-01-13T17:18:00;8.30;;;2.08;;
57828;SDS011;43657;52.698;6.314;2023-01-13T17:20:26;11.68;;;2.00;;
57828;SDS011;43657;52.698;6.314;2023-01-13T17:22:53;16.38;;;2.80;;
57828;SDS011;43657;52.698;6.314;2023-01-13T17:25:18;8.52;;;2.45;;